sensor_id;sensor_type;location;lat;lon;timestamp;pressure;altitude;pressure_sealevel;temperature;humidity
23241;BME280;11789;53.482;9.862;2022-09-09T00:00:22;100858.28;;;13.60;100.00
23241;BME280;11789;53.482;9.862;2022-09-09T00:03:02;100853.94;;;13.61;100.00
23241;BME280;11789;53.482;9.862;2022-09-09T00:08:17;100859.44;;;13.39;100.00
23241;BME280;11789;53.482;9.862;2022-09-09T00:10:45;100861.22;;;13.34;100.00
23241;BME280;11789;53.482;9.862;2022-09-09T00:13:34;100863.00;;;13.31;100.00
23241;BME280;11789;53.482;9.862;2022-09-09T00:16:13;100855.22;;;13.29;100.00
23241;BME280;11789;53.482;9.862;2022-09-09T00:25:11;100850.84;;;13.31;100.00
23241;BME280;11789;53.482;9.862;2022-09-09T00:27:48;100856.88;;;13.35;100.00
23241;BME280;11789;53.482;9.862;2022-09-09T00:30:20;100849.88;;;13.41;100.00
23241;BME280;11789;53.482;9.862;2022-09-09T00:32:55;100853.28;;;13.45;100.00
23241;BME280;11789;53.482;9.862;2022-09-09T00:35:30;100857.59;;;13.46;100.00
23241;BME280;11789;53.482;9.862;2022-09-09T00:38:01;100851.53;;;13.47;100.00
23241;BME280;11789;53.482;9.862;2022-09-09T00:40:40;100851.59;;;13.44;100.00
23241;BME280;11789;53.482;9.862;2022-09-09T00:43:18;100849.91;;;13.40;100.00
23241;BME280;11789;53.482;9.862;2022-09-09T00:46:16;100844.69;;;13.40;100.00
23241;BME280;11789;53.482;9.862;2022-09-09T00:49:00;100845.53;;;13.43;100.00
23241;BME280;11789;53.482;9.862;2022-09-09T00:57:26;100853.31;;;13.42;100.00
23241;BME280;11789;53.482;9.862;2022-09-09T01:00:19;100850.75;;;13.40;100.00
23241;BME280;11789;53.482;9.862;2022-09-09T01:08:36;100847.37;;;13.34;100.00
23241;BME280;11789;53.482;9.862;2022-09-09T01:11:12;100849.16;;;13.30;100.00
23241;BME280;11789;53.482;9.862;2022-09-09T01:13:41;100855.16;;;13.32;100.00
23241;BME280;11789;53.482;9.862;2022-09-09T01:16:10;100848.22;;;13.33;100.00
23241;BME280;11789;53.482;9.862;2022-09-09T01:18:44;100843.94;;;13.32;100.00
23241;BME280;11789;53.482;9.862;2022-09-09T01:21:21;100845.69;;;13.30;100.00
23241;BME280;11789;53.482;9.862;2022-09-09T01:26:43;100851.81;;;13.22;100.00
23241;BME280;11789;53.482;9.862;2022-09-09T01:29:12;100850.13;;;13.23;100.00
23241;BME280;11789;53.482;9.862;2022-09-09T01:31:51;100851.84;;;13.19;100.00
23241;BME280;11789;53.482;9.862;2022-09-09T01:34:17;100853.56;;;13.17;100.00
23241;BME280;11789;53.482;9.862;2022-09-09T01:36:48;100842.41;;;13.14;100.00
23241;BME280;11789;53.482;9.862;2022-09-09T01:39:16;100844.97;;;13.15;100.00
23241;BME280;11789;53.482;9.862;2022-09-09T01:41:42;100845.91;;;13.10;100.00
23241;BME280;11789;53.482;9.862;2022-09-09T01:44:08;100841.56;;;13.10;100.00
23241;BME280;11789;53.482;9.862;2022-09-09T01:46:33;100836.38;;;13.07;100.00
23241;BME280;11789;53.482;9.862;2022-09-09T01:49:00;100836.44;;;13.04;100.00
23241;BME280;11789;53.482;9.862;2022-09-09T01:51:27;100833.84;;;13.04;100.00
23241;BME280;11789;53.482;9.862;2022-09-09T01:53:53;100840.78;;;13.02;100.00
23241;BME280;11789;53.482;9.862;2022-09-09T01:56:28;100833.00;;;13.02;100.00
23241;BME280;11789;53.482;9.862;2022-09-09T01:59:24;100832.16;;;13.00;100.00
23241;BME280;11789;53.482;9.862;2022-09-09T02:02:19;100845.97;;;13.02;100.00
23241;BME280;11789;53.482;9.862;2022-09-09T02:07:38;100839.12;;;12.98;100.00
23241;BME280;11789;53.482;9.862;2022-09-09T02:11:31;100846.87;;;12.99;100.00
23241;BME280;11789;53.482;9.862;2022-09-09T02:13:26;100842.50;;;13.02;100.00
23241;BME280;11789;53.482;9.862;2022-09-09T02:16:07;100848.62;;;12.96;100.00
23241;BME280;11789;53.482;9.862;2022-09-09T02:19:04;100846.09;;;12.93;100.00
23241;BME280;11789;53.482;9.862;2022-09-09T02:21:32;100853.91;;;12.87;100.00
23241;BME280;11789;53.482;9.862;2022-09-09T02:24:02;100847.09;;;12.80;100.00
23241;BME280;11789;53.482;9.862;2022-09-09T02:26:31;100846.28;;;12.75;100.00
23241;BME280;11789;53.482;9.862;2022-09-09T02:29:03;100845.41;;;12.74;100.00
23241;BME280;11789;53.482;9.862;2022-09-09T02:31:31;100844.50;;;12.77;100.00
23241;BME280;11789;53.482;9.862;2022-09-09T02:34:01;100841.03;;;12.79;100.00
23241;BME280;11789;53.482;9.862;2022-09-09T02:36:31;100835.84;;;12.79;100.00
23241;BME280;11789;53.482;9.862;2022-09-09T02:38:59;100839.28;;;12.81;100.00
23241;BME280;11789;53.482;9.862;2022-09-09T02:41:31;100834.19;;;12.73;100.00
23241;BME280;11789;53.482;9.862;2022-09-09T02:43:57;100845.47;;;12.66;100.00
23241;BME280;11789;53.482;9.862;2022-09-09T02:49:18;100839.44;;;12.64;100.00
23241;BME280;11789;53.482;9.862;2022-09-09T02:52:08;100835.09;;;12.69;100.00
23241;BME280;11789;53.482;9.862;2022-09-09T02:54:38;100830.78;;;12.65;100.00
23241;BME280;11789;53.482;9.862;2022-09-09T02:57:17;100831.59;;;12.70;100.00
23241;BME280;11789;53.482;9.862;2022-09-09T02:59:44;100829.81;;;12.76;100.00
23241;BME280;11789;53.482;9.862;2022-09-09T03:02:11;100835.06;;;12.71;100.00
23241;BME280;11789;53.482;9.862;2022-09-09T03:04:38;100831.66;;;12.66;100.00
23241;BME280;11789;53.482;9.862;2022-09-09T03:07:04;100833.37;;;12.65;100.00
23241;BME280;11789;53.482;9.862;2022-09-09T03:09:30;100834.28;;;12.63;100.00
23241;BME280;11789;53.482;9.862;2022-09-09T03:11:55;100835.16;;;12.60;100.00
23241;BME280;11789;53.482;9.862;2022-09-09T03:14:22;100831.75;;;12.58;100.00
23241;BME280;11789;53.482;9.862;2022-09-09T03:16:53;100829.97;;;12.60;100.00
23241;BME280;11789;53.482;9.862;2022-09-09T03:19:20;100832.56;;;12.60;100.00
23241;BME280;11789;53.482;9.862;2022-09-09T03:21:46;100830.88;;;12.58;100.00
23241;BME280;11789;53.482;9.862;2022-09-09T03:24:13;100826.53;;;12.60;100.00
23241;BME280;11789;53.482;9.862;2022-09-09T03:26:40;100835.16;;;12.60;100.00
23241;BME280;11789;53.482;9.862;2022-09-09T03:29:06;100834.38;;;12.54;100.00
23241;BME280;11789;53.482;9.862;2022-09-09T03:31:35;100832.63;;;12.54;100.00
23241;BME280;11789;53.482;9.862;2022-09-09T03:34:02;100836.97;;;12.54;100.00
23241;BME280;11789;53.482;9.862;2022-09-09T03:36:28;100843.94;;;12.47;100.00
23241;BME280;11789;53.482;9.862;2022-09-09T03:38:53;100844.78;;;12.46;100.00
23241;BME280;11789;53.482;9.862;2022-09-09T03:41:20;100850.00;;;12.44;100.00
23241;BME280;11789;53.482;9.862;2022-09-09T03:43:46;100849.12;;;12.45;100.00
23241;BME280;11789;53.482;9.862;2022-09-09T03:46:11;100848.28;;;12.43;100.00
23241;BME280;11789;53.482;9.862;2022-09-09T03:48:37;100842.25;;;12.40;100.00
23241;BME280;11789;53.482;9.862;2022-09-09T03:51:02;100843.97;;;12.41;100.00
23241;BME280;11789;53.482;9.862;2022-09-09T03:53:29;100845.69;;;12.43;100.00
23241;BME280;11789;53.482;9.862;2022-09-09T03:55:55;100854.31;;;12.47;100.00
23241;BME280;11789;53.482;9.862;2022-09-09T03:58:22;100849.94;;;12.51;100.00
23241;BME280;11789;53.482;9.862;2022-09-09T04:00:57;100849.06;;;12.53;100.00
23241;BME280;11789;53.482;9.862;2022-09-09T04:03:24;100853.41;;;12.53;100.00
23241;BME280;11789;53.482;9.862;2022-09-09T04:05:53;100860.28;;;12.55;100.00
23241;BME280;11789;53.482;9.862;2022-09-09T04:08:20;100862.00;;;12.58;100.00
23241;BME280;11789;53.482;9.862;2022-09-09T04:10:47;100855.09;;;12.58;100.00
23241;BME280;11789;53.482;9.862;2022-09-09T04:13:14;100853.34;;;12.59;100.00
23241;BME280;11789;53.482;9.862;2022-09-09T04:15:40;100857.66;;;12.58;100.00
23241;BME280;11789;53.482;9.862;2022-09-09T04:18:06;100864.56;;;12.59;100.00
23241;BME280;11789;53.482;9.862;2022-09-09T04:20:32;100862.84;;;12.60;100.00
23241;BME280;11789;53.482;9.862;2022-09-09T04:22:57;100859.38;;;12.61;100.00
23241;BME280;11789;53.482;9.862;2022-09-09T04:25:23;100863.69;;;12.60;100.00
23241;BME280;11789;53.482;9.862;2022-09-09T04:27:56;100860.25;;;12.60;100.00
23241;BME280;11789;53.482;9.862;2022-09-09T04:30:22;100864.56;;;12.61;100.00
23241;BME280;11789;53.482;9.862;2022-09-09T04:32:48;100863.66;;;12.62;100.00
23241;BME280;11789;53.482;9.862;2022-09-09T04:35:14;100868.88;;;12.60;100.00
23241;BME280;11789;53.482;9.862;2022-09-09T04:37:39;100872.38;;;12.58;100.00
23241;BME280;11789;53.482;9.862;2022-09-09T04:40:06;100867.16;;;12.61;100.00
23241;BME280;11789;53.482;9.862;2022-09-09T04:42:38;100869.75;;;12.62;100.00
23241;BME280;11789;53.482;9.862;2022-09-09T04:45:05;100861.97;;;12.62;100.00
23241;BME280;11789;53.482;9.862;2022-09-09T04:47:32;100865.38;;;12.64;100.00
23241;BME280;11789;53.482;9.862;2022-09-09T04:49:58;100862.78;;;12.66;100.00
23241;BME280;11789;53.482;9.862;2022-09-09T04:52:23;100876.63;;;12.65;100.00
23241;BME280;11789;53.482;9.862;2022-09-09T04:54:49;100878.34;;;12.64;100.00
23241;BME280;11789;53.482;9.862;2022-09-09T04:57:14;100871.47;;;12.63;100.00
23241;BME280;11789;53.482;9.862;2022-09-09T04:59:40;100883.53;;;12.66;100.00
23241;BME280;11789;53.482;9.862;2022-09-09T05:02:05;100881.84;;;12.63;100.00
23241;BME280;11789;53.482;9.862;2022-09-09T05:04:31;100886.16;;;12.63;100.00
23241;BME280;11789;53.482;9.862;2022-09-09T05:06:56;100882.66;;;12.65;100.00
23241;BME280;11789;53.482;9.862;2022-09-09T05:09:22;100883.59;;;12.58;100.00
23241;BME280;11789;53.482;9.862;2022-09-09T05:11:47;100885.34;;;12.58;100.00
23241;BME280;11789;53.482;9.862;2022-09-09T05:14:13;100874.94;;;12.59;100.00
23241;BME280;11789;53.482;9.862;2022-09-09T05:16:39;100877.53;;;12.59;100.00
23241;BME280;11789;53.482;9.862;2022-09-09T05:19:05;100877.50;;;12.61;100.00
23241;BME280;11789;53.482;9.862;2022-09-09T05:21:31;100875.78;;;12.63;100.00
23241;BME280;11789;53.482;9.862;2022-09-09T05:23:57;100878.34;;;12.64;100.00
23241;BME280;11789;53.482;9.862;2022-09-09T05:26:22;100880.94;;;12.64;100.00
23241;BME280;11789;53.482;9.862;2022-09-09T05:28:49;100888.72;;;12.66;100.00
23241;BME280;11789;53.482;9.862;2022-09-09T05:31:16;100894.81;;;12.63;100.00
23241;BME280;11789;53.482;9.862;2022-09-09T05:33:44;100894.75;;;12.68;100.00
23241;BME280;11789;53.482;9.862;2022-09-09T05:36:12;100895.59;;;12.70;100.00
23241;BME280;11789;53.482;9.862;2022-09-09T05:38:39;100893.84;;;12.70;100.00
23241;BME280;11789;53.482;9.862;2022-09-09T05:41:06;100901.63;;;12.72;100.00
23241;BME280;11789;53.482;9.862;2022-09-09T05:43:32;100905.06;;;12.74;100.00
23241;BME280;11789;53.482;9.862;2022-09-09T05:46:10;100905.03;;;12.77;100.00
23241;BME280;11789;53.482;9.862;2022-09-09T05:48:41;100905.88;;;12.81;100.00
23241;BME280;11789;53.482;9.862;2022-09-09T05:51:11;100908.44;;;12.84;100.00
23241;BME280;11789;53.482;9.862;2022-09-09T05:53:46;100912.75;;;12.85;100.00
23241;BME280;11789;53.482;9.862;2022-09-09T05:56:14;100909.25;;;12.87;100.00
23241;BME280;11789;53.482;9.862;2022-09-09T05:58:40;100914.41;;;12.92;100.00
23241;BME280;11789;53.482;9.862;2022-09-09T06:01:14;100916.13;;;12.94;100.00
23241;BME280;11789;53.482;9.862;2022-09-09T06:03:42;100915.25;;;12.95;100.00
23241;BME280;11789;53.482;9.862;2022-09-09T06:06:10;100913.50;;;12.99;100.00
23241;BME280;11789;53.482;9.862;2022-09-09T06:08:39;100919.50;;;13.04;100.00
23241;BME280;11789;53.482;9.862;2022-09-09T06:11:10;100923.78;;;13.07;100.00
23241;BME280;11789;53.482;9.862;2022-09-09T06:13:37;100924.63;;;13.10;100.00
23241;BME280;11789;53.482;9.862;2022-09-09T06:16:15;100927.16;;;13.15;100.00
23241;BME280;11789;53.482;9.862;2022-09-09T06:18:41;100929.75;;;13.16;100.00
23241;BME280;11789;53.482;9.862;2022-09-09T06:21:19;100932.34;;;13.18;100.00
23241;BME280;11789;53.482;9.862;2022-09-09T06:23:46;100932.31;;;13.19;100.00
23241;BME280;11789;53.482;9.862;2022-09-09T06:26:19;100935.78;;;13.21;100.00
23241;BME280;11789;53.482;9.862;2022-09-09T06:28:47;100934.03;;;13.25;100.00
23241;BME280;11789;53.482;9.862;2022-09-09T06:31:15;100931.41;;;13.27;100.00
23241;BME280;11789;53.482;9.862;2022-09-09T06:33:48;100928.81;;;13.28;100.00
23241;BME280;11789;53.482;9.862;2022-09-09T06:36:15;100935.69;;;13.31;100.00
23241;BME280;11789;53.482;9.862;2022-09-09T06:38:42;100938.25;;;13.34;100.00
23241;BME280;11789;53.482;9.862;2022-09-09T06:41:09;100935.63;;;13.37;100.00
23241;BME280;11789;53.482;9.862;2022-09-09T06:43:35;100937.34;;;13.39;100.00
23241;BME280;11789;53.482;9.862;2022-09-09T06:46:03;100931.22;;;13.42;100.00
23241;BME280;11789;53.482;9.862;2022-09-09T06:48:29;100932.91;;;13.46;100.00
23241;BME280;11789;53.482;9.862;2022-09-09T06:51:10;100931.19;;;13.46;100.00
23241;BME280;11789;53.482;9.862;2022-09-09T06:53:37;100929.44;;;13.47;100.00
23241;BME280;11789;53.482;9.862;2022-09-09T06:56:18;100932.84;;;13.52;100.00
23241;BME280;11789;53.482;9.862;2022-09-09T06:58:44;100932.78;;;13.57;100.00
23241;BME280;11789;53.482;9.862;2022-09-09T07:01:15;100937.06;;;13.61;100.00
23241;BME280;11789;53.482;9.862;2022-09-09T07:03:44;100929.25;;;13.62;100.00
23241;BME280;11789;53.482;9.862;2022-09-09T07:06:22;100935.28;;;13.66;100.00
23241;BME280;11789;53.482;9.862;2022-09-09T07:08:53;100935.25;;;13.67;100.00
23241;BME280;11789;53.482;9.862;2022-09-09T07:11:20;100943.91;;;13.69;100.00
23241;BME280;11789;53.482;9.862;2022-09-09T07:13:46;100944.75;;;13.71;100.00
23241;BME280;11789;53.482;9.862;2022-09-09T07:16:14;100944.75;;;13.71;100.00
23241;BME280;11789;53.482;9.862;2022-09-09T07:18:40;100941.22;;;13.75;100.00
23241;BME280;11789;53.482;9.862;2022-09-09T07:21:06;100944.66;;;13.77;100.00
23241;BME280;11789;53.482;9.862;2022-09-09T07:23:32;100941.16;;;13.80;100.00
23241;BME280;11789;53.482;9.862;2022-09-09T07:25:58;100936.81;;;13.82;100.00
23241;BME280;11789;53.482;9.862;2022-09-09T07:28:24;100937.66;;;13.84;100.00
23241;BME280;11789;53.482;9.862;2022-09-09T07:31:00;100939.34;;;13.87;100.00
23241;BME280;11789;53.482;9.862;2022-09-09T07:33:29;100941.06;;;13.88;100.00
23241;BME280;11789;53.482;9.862;2022-09-09T07:36:07;100941.06;;;13.88;100.00
23241;BME280;11789;53.482;9.862;2022-09-09T07:38:44;100945.37;;;13.90;100.00
23241;BME280;11789;53.482;9.862;2022-09-09T07:41:13;100947.06;;;13.94;100.00
23241;BME280;11789;53.482;9.862;2022-09-09T07:43:41;100938.37;;;13.95;100.00
23241;BME280;11789;53.482;9.862;2022-09-09T07:46:07;100952.16;;;14.00;100.00
23241;BME280;11789;53.482;9.862;2022-09-09T07:48:33;100955.56;;;14.06;100.00
23241;BME280;11789;53.482;9.862;2022-09-09T07:53:32;100953.66;;;14.17;100.00
23241;BME280;11789;53.482;9.862;2022-09-09T07:56:10;100954.44;;;14.23;100.00
23241;BME280;11789;53.482;9.862;2022-09-09T07:58:36;100952.63;;;14.28;100.00
23241;BME280;11789;53.482;9.862;2022-09-09T08:01:17;100961.22;;;14.34;100.00
23241;BME280;11789;53.482;9.862;2022-09-09T08:03:44;100960.28;;;14.38;100.00
23241;BME280;11789;53.482;9.862;2022-09-09T08:06:10;100956.81;;;14.40;100.00
23241;BME280;11789;53.482;9.862;2022-09-09T08:08:38;100965.41;;;14.45;100.00
23241;BME280;11789;53.482;9.862;2022-09-09T08:11:06;100965.38;;;14.50;100.00
23241;BME280;11789;53.482;9.862;2022-09-09T08:13:34;100968.78;;;14.52;100.00
23241;BME280;11789;53.482;9.862;2022-09-09T08:16:19;100973.97;;;14.55;100.00
23241;BME280;11789;53.482;9.862;2022-09-09T08:18:47;100975.66;;;14.56;100.00
23241;BME280;11789;53.482;9.862;2022-09-09T08:21:16;100981.69;;;14.58;100.00
23241;BME280;11789;53.482;9.862;2022-09-09T08:23:44;100979.06;;;14.60;100.00
23241;BME280;11789;53.482;9.862;2022-09-09T08:26:18;100981.66;;;14.61;100.00
23241;BME280;11789;53.482;9.862;2022-09-09T08:28:49;100977.28;;;14.63;100.00
23241;BME280;11789;53.482;9.862;2022-09-09T08:31:24;100974.66;;;14.65;100.00
23241;BME280;11789;53.482;9.862;2022-09-09T08:33:51;100978.12;;;14.65;100.00
23241;BME280;11789;53.482;9.862;2022-09-09T08:36:22;100978.06;;;14.68;100.00
23241;BME280;11789;53.482;9.862;2022-09-09T08:38:50;100982.34;;;14.72;100.00
23241;BME280;11789;53.482;9.862;2022-09-09T08:47:42;100986.47;;;14.86;100.00
23241;BME280;11789;53.482;9.862;2022-09-09T08:50:34;100993.31;;;14.90;100.00
23241;BME280;11789;53.482;9.862;2022-09-09T08:53:04;100991.50;;;14.96;100.00
23241;BME280;11789;53.482;9.862;2022-09-09T08:55:50;100994.00;;;15.02;100.00
23241;BME280;11789;53.482;9.862;2022-09-09T08:58:21;100989.56;;;15.08;100.00
23241;BME280;11789;53.482;9.862;2022-09-09T09:12:07;100984.72;;;15.37;100.00
23241;BME280;11789;53.482;9.862;2022-09-09T09:14:37;100988.09;;;15.41;100.00
23241;BME280;11789;53.482;9.862;2022-09-09T09:17:12;100991.50;;;15.44;100.00
23241;BME280;11789;53.482;9.862;2022-09-09T09:19:41;100994.03;;;15.49;100.00
23241;BME280;11789;53.482;9.862;2022-09-09T09:22:19;100986.16;;;15.52;100.00
23241;BME280;11789;53.482;9.862;2022-09-09T09:27:27;100987.78;;;15.57;100.00
23241;BME280;11789;53.482;9.862;2022-09-09T09:29:56;100990.34;;;15.59;100.00
23241;BME280;11789;53.482;9.862;2022-09-09T09:32:24;100998.09;;;15.65;100.00
23241;BME280;11789;53.482;9.862;2022-09-09T09:34:55;100997.94;;;15.73;100.00
23241;BME280;11789;53.482;9.862;2022-09-09T09:37:34;100997.81;;;15.79;100.00
23241;BME280;11789;53.482;9.862;2022-09-09T09:40:11;100993.31;;;15.86;100.00
23241;BME280;11789;53.482;9.862;2022-09-09T09:42:38;100988.91;;;15.89;100.00
23241;BME280;11789;53.482;9.862;2022-09-09T09:45:26;100992.19;;;15.99;100.00
23241;BME280;11789;53.482;9.862;2022-09-09T09:48:03;100993.78;;;16.06;100.00
23241;BME280;11789;53.482;9.862;2022-09-09T09:50:31;100988.38;;;16.15;100.00
23241;BME280;11789;53.482;9.862;2022-09-09T09:53:00;100998.75;;;16.17;100.00
23241;BME280;11789;53.482;9.862;2022-09-09T09:55:28;100995.25;;;16.19;100.00
23241;BME280;11789;53.482;9.862;2022-09-09T09:58:01;100993.47;;;16.20;100.00
23241;BME280;11789;53.482;9.862;2022-09-09T10:00:27;100996.09;;;16.20;100.00
23241;BME280;11789;53.482;9.862;2022-09-09T10:02:53;100996.03;;;16.21;100.00
23241;BME280;11789;53.482;9.862;2022-09-09T10:05:27;100992.56;;;16.22;100.00
23241;BME280;11789;53.482;9.862;2022-09-09T10:08:16;100991.59;;;16.26;100.00
23241;BME280;11789;53.482;9.862;2022-09-09T10:13:48;100989.81;;;16.28;100.00
23241;BME280;11789;53.482;9.862;2022-09-09T10:19:00;100989.69;;;16.34;100.00
23241;BME280;11789;53.482;9.862;2022-09-09T10:27:20;100989.16;;;16.57;97.21
23241;BME280;11789;53.482;9.862;2022-09-09T10:32:45;100988.38;;;16.52;96.52
23241;BME280;11789;53.482;9.862;2022-09-09T10:35:47;100984.06;;;16.53;96.47
23241;BME280;11789;53.482;9.862;2022-09-09T10:38:39;100985.78;;;16.52;95.58
23241;BME280;11789;53.482;9.862;2022-09-09T10:41:19;100985.75;;;16.54;95.62
23241;BME280;11789;53.482;9.862;2022-09-09T10:44:06;100984.06;;;16.51;97.51
23241;BME280;11789;53.482;9.862;2022-09-09T10:52:43;100981.19;;;16.64;95.55
23241;BME280;11789;53.482;9.862;2022-09-09T10:55:18;100981.00;;;16.71;94.37
23241;BME280;11789;53.482;9.862;2022-09-09T10:57:48;100983.56;;;16.74;94.75
23241;BME280;11789;53.482;9.862;2022-09-09T11:00:31;100983.44;;;16.79;94.87
23241;BME280;11789;53.482;9.862;2022-09-09T11:03:03;100975.53;;;16.82;95.08
23241;BME280;11789;53.482;9.862;2022-09-09T11:05:42;100977.38;;;16.78;95.61
23241;BME280;11789;53.482;9.862;2022-09-09T11:14:02;100972.63;;;16.93;95.18
23241;BME280;11789;53.482;9.862;2022-09-09T11:19:38;100974.62;;;17.17;95.52
23241;BME280;11789;53.482;9.862;2022-09-09T11:22:15;100965.63;;;17.29;93.35
23241;BME280;11789;53.482;9.862;2022-09-09T11:24:46;100973.06;;;17.44;94.06
23241;BME280;11789;53.482;9.862;2022-09-09T11:30:10;100962.28;;;17.55;89.48
23241;BME280;11789;53.482;9.862;2022-09-09T11:35:33;100972.44;;;17.66;85.54
23241;BME280;11789;53.482;9.862;2022-09-09T11:38:26;100975.00;;;17.67;86.57
23241;BME280;11789;53.482;9.862;2022-09-09T11:40:58;100974.88;;;17.73;85.20
23241;BME280;11789;53.482;9.862;2022-09-09T11:43:31;100969.72;;;17.70;86.13
23241;BME280;11789;53.482;9.862;2022-09-09T11:46:01;100971.50;;;17.68;87.22
23241;BME280;11789;53.482;9.862;2022-09-09T11:48:36;100978.53;;;17.66;84.98
23241;BME280;11789;53.482;9.862;2022-09-09T11:51:08;100979.25;;;17.71;85.39
23241;BME280;11789;53.482;9.862;2022-09-09T11:53:36;100980.19;;;17.69;86.83
23241;BME280;11789;53.482;9.862;2022-09-09T11:56:13;100983.47;;;17.77;87.25
23241;BME280;11789;53.482;9.862;2022-09-09T11:58:43;100970.94;;;17.89;84.43
23241;BME280;11789;53.482;9.862;2022-09-09T12:01:27;100965.03;;;18.11;84.12
23241;BME280;11789;53.482;9.862;2022-09-09T12:04:05;100964.44;;;18.31;83.23
23241;BME280;11789;53.482;9.862;2022-09-09T12:06:46;100966.44;;;18.51;81.55
23241;BME280;11789;53.482;9.862;2022-09-09T12:11:49;100955.25;;;18.46;83.69
23241;BME280;11789;53.482;9.862;2022-09-09T12:14:23;100957.31;;;18.34;84.66
23241;BME280;11789;53.482;9.862;2022-09-09T12:17:09;100959.94;;;18.34;83.20
23241;BME280;11789;53.482;9.862;2022-09-09T12:19:35;100964.44;;;18.31;84.27
23241;BME280;11789;53.482;9.862;2022-09-09T12:22:08;100960.06;;;18.31;83.57
23241;BME280;11789;53.482;9.862;2022-09-09T12:24:46;100955.63;;;18.33;82.80
23241;BME280;11789;53.482;9.862;2022-09-09T12:27:23;100957.03;;;18.44;81.55
23241;BME280;11789;53.482;9.862;2022-09-09T12:30:00;100965.09;;;18.64;75.98
23241;BME280;11789;53.482;9.862;2022-09-09T12:32:27;100960.59;;;18.69;78.98
23241;BME280;11789;53.482;9.862;2022-09-09T12:35:09;100969.56;;;18.62;79.59
23241;BME280;11789;53.482;9.862;2022-09-09T12:37:41;100965.47;;;18.53;79.32
23241;BME280;11789;53.482;9.862;2022-09-09T12:40:24;100961.38;;;18.45;78.06
23241;BME280;11789;53.482;9.862;2022-09-09T12:42:50;100963.38;;;18.36;78.98
23241;BME280;11789;53.482;9.862;2022-09-09T12:45:23;100958.34;;;18.30;79.14
23241;BME280;11789;53.482;9.862;2022-09-09T12:48:05;100964.78;;;18.20;79.62
23241;BME280;11789;53.482;9.862;2022-09-09T12:50:38;100972.00;;;18.12;80.55
23241;BME280;11789;53.482;9.862;2022-09-09T12:53:13;100977.28;;;18.10;80.47
23241;BME280;11789;53.482;9.862;2022-09-09T12:55:50;100979.06;;;18.08;81.93
23241;BME280;11789;53.482;9.862;2022-09-09T12:58:18;100991.56;;;17.99;84.34
23241;BME280;11789;53.482;9.862;2022-09-09T13:00:52;100999.69;;;17.89;86.14
23241;BME280;11789;53.482;9.862;2022-09-09T13:03:19;101012.31;;;17.75;88.24
23241;BME280;11789;53.482;9.862;2022-09-09T13:05:46;101016.94;;;17.64;89.25
23241;BME280;11789;53.482;9.862;2022-09-09T13:08:13;101024.19;;;17.53;91.70
23241;BME280;11789;53.482;9.862;2022-09-09T13:10:54;101018.75;;;17.29;89.50
23241;BME280;11789;53.482;9.862;2022-09-09T13:13:27;101027.19;;;17.05;84.13
23241;BME280;11789;53.482;9.862;2022-09-09T13:16:02;101026.97;;;16.78;80.19
23241;BME280;11789;53.482;9.862;2022-09-09T13:18:33;101018.03;;;16.50;78.81
23241;BME280;11789;53.482;9.862;2022-09-09T13:20:59;101018.56;;;16.25;79.42
23241;BME280;11789;53.482;9.862;2022-09-09T13:23:36;101020.66;;;16.09;82.19
23241;BME280;11789;53.482;9.862;2022-09-09T13:26:22;101016.66;;;15.93;85.11
23241;BME280;11789;53.482;9.862;2022-09-09T13:28:49;101025.69;;;15.77;88.22
23241;BME280;11789;53.482;9.862;2022-09-09T13:31:22;101009.53;;;15.56;91.98
23241;BME280;11789;53.482;9.862;2022-09-09T13:33:48;101019.31;;;15.44;96.03
23241;BME280;11789;53.482;9.862;2022-09-09T13:36:13;101027.31;;;15.33;99.60
23241;BME280;11789;53.482;9.862;2022-09-09T13:41:22;101039.72;;;15.19;100.00
23241;BME280;11789;53.482;9.862;2022-09-09T13:43:49;101036.28;;;15.15;100.00
23241;BME280;11789;53.482;9.862;2022-09-09T13:46:36;101046.72;;;15.15;100.00
23241;BME280;11789;53.482;9.862;2022-09-09T13:51:42;101036.25;;;15.18;100.00
23241;BME280;11789;53.482;9.862;2022-09-09T13:54:10;101038.00;;;15.18;100.00
23241;BME280;11789;53.482;9.862;2022-09-09T13:56:37;101030.19;;;15.18;100.00
23241;BME280;11789;53.482;9.862;2022-09-09T13:59:05;101022.41;;;15.16;100.00
23241;BME280;11789;53.482;9.862;2022-09-09T14:01:30;101020.72;;;15.14;100.00
23241;BME280;11789;53.482;9.862;2022-09-09T14:03:56;101018.12;;;15.12;100.00
23241;BME280;11789;53.482;9.862;2022-09-09T14:06:22;101017.28;;;15.10;100.00
23241;BME280;11789;53.482;9.862;2022-09-09T14:08:51;101013.88;;;15.08;100.00
23241;BME280;11789;53.482;9.862;2022-09-09T14:11:17;101013.88;;;15.08;100.00
23241;BME280;11789;53.482;9.862;2022-09-09T14:13:43;101027.78;;;15.07;100.00
23241;BME280;11789;53.482;9.862;2022-09-09T14:16:09;101015.66;;;15.06;100.00
23241;BME280;11789;53.482;9.862;2022-09-09T14:18:35;101010.44;;;15.06;100.00
23241;BME280;11789;53.482;9.862;2022-09-09T14:21:00;101006.97;;;15.04;100.00
23241;BME280;11789;53.482;9.862;2022-09-09T14:23:28;101004.38;;;15.04;100.00
23241;BME280;11789;53.482;9.862;2022-09-09T14:25:54;101001.78;;;15.04;100.00
23241;BME280;11789;53.482;9.862;2022-09-09T14:28:20;101000.09;;;15.01;100.00
23241;BME280;11789;53.482;9.862;2022-09-09T14:30:45;101001.84;;;15.01;100.00
23241;BME280;11789;53.482;9.862;2022-09-09T14:33:13;100998.38;;;15.00;100.00
23241;BME280;11789;53.482;9.862;2022-09-09T14:35:39;101003.63;;;14.97;100.00
23241;BME280;11789;53.482;9.862;2022-09-09T14:38:05;100999.31;;;14.96;100.00